Time;durP1;ratioP1;P1;durP2;ratioP2;P2;SDS_P1;SDS_P2;PMS_P1;PMS_P2;Temp;Humidity;BMP_temperature;BMP_pressure;BME280_temperature;BME280_humidity;BME280_pressure;Samples;Min_cycle;Max_cycle;Signal;HPM_P1;HPM_P2
2022/03/13 00:00:57;;;;;;;30.13;7.28;;;;;;;2.87;44.70;98082.50;5009387;28;20045;-56
2022/03/13 00:03:23;;;;;;;33.60;7.38;;;;;;;2.84;45.69;98076.53;5009660;28;20091;-55
2022/03/13 00:05:51;;;;;;;32.70;7.53;;;;;;;2.76;44.23;98076.59;5006331;28;20046;-57
2022/03/13 00:08:30;;;;;;;44.75;7.82;;;;;;;2.77;48.20;98073.13;5034894;28;20405;-56
2022/03/13 00:11:07;;;;;;;25.05;6.95;;;;;;;2.82;44.76;98073.13;5030010;28;20527;-58
2022/03/13 00:13:38;;;;;;;25.45;7.07;;;;;;;2.64;47.45;98068.97;5024365;28;20075;-57
2022/03/13 00:16:08;;;;;;;22.50;6.53;;;;;;;2.67;47.37;98068.94;5023376;28;20038;-57
2022/03/13 00:18:41;;;;;;;24.83;6.22;;;;;;;2.94;49.42;98061.81;5024744;28;20021;-57
2022/03/13 00:21:08;;;;;;;26.27;7.03;;;;;;;2.95;51.86;98064.41;5019620;28;20072;-57
2022/03/13 00:23:34;;;;;;;23.70;6.35;;;;;;;2.76;49.30;98068.88;5015414;28;20484;-55
2022/03/13 00:26:00;;;;;;;27.00;6.88;;;;;;;2.43;44.84;98062.28;5023548;28;20034;-55
2022/03/13 00:28:26;;;;;;;25.27;7.03;;;;;;;2.62;47.18;98062.97;5022634;28;20099;-55
2022/03/13 00:30:51;;;;;;;23.25;6.05;;;;;;;2.87;52.42;98067.03;5022317;28;20677;-56
2022/03/13 00:33:17;;;;;;;29.90;7.32;;;;;;;2.68;49.26;98068.06;5021375;28;20152;-56
2022/03/13 00:35:43;;;;;;;25.95;6.60;;;;;;;2.67;46.64;98069.78;5019190;28;20037;-55
2022/03/13 00:38:08;;;;;;;24.15;6.75;;;;;;;2.76;50.63;98071.44;5022362;28;20049;-56
2022/03/13 00:40:34;;;;;;;25.92;6.90;;;;;;;2.46;47.56;98070.84;5022577;28;20936;-57
2022/03/13 00:43:00;;;;;;;29.80;6.95;;;;;;;2.61;47.41;98068.97;5020397;28;20029;-56
2022/03/13 00:45:27;;;;;;;28.13;6.80;;;;;;;2.51;47.60;98069.06;5023241;28;20034;-57
2022/03/13 00:47:52;;;;;;;24.65;7.32;;;;;;;2.38;45.51;98062.28;5019680;28;20017;-55
2022/03/13 00:50:17;;;;;;;25.65;7.07;;;;;;;2.26;45.26;98054.66;5018939;28;20048;-58
2022/03/13 00:52:44;;;;;;;28.77;7.15;;;;;;;2.24;46.44;98058.97;5022097;28;20025;-57
2022/03/13 00:55:10;;;;;;;25.95;6.47;;;;;;;2.37;46.76;98067.44;5016453;28;20029;-58
2022/03/13 00:57:35;;;;;;;25.65;6.68;;;;;;;2.41;48.75;98064.84;5023752;28;20867;-55
2022/03/13 01:00:00;;;;;;;26.70;6.63;;;;;;;2.45;47.27;98063.97;5022020;28;20026;-55
2022/03/13 01:02:26;;;;;;;19.83;6.03;;;;;;;2.53;51.04;98060.47;5020196;28;20106;-55
2022/03/13 01:04:51;;;;;;;33.30;7.40;;;;;;;2.50;48.58;98057.06;5018597;28;20042;-55
2022/03/13 01:07:17;;;;;;;25.65;6.93;;;;;;;2.40;46.30;98064.88;5018199;28;20042;-55
2022/03/13 01:09:42;;;;;;;24.33;6.75;;;;;;;2.43;48.18;98062.28;5021290;28;20040;-57
2022/03/13 01:12:08;;;;;;;24.27;6.70;;;;;;;2.42;47.39;98063.97;5016352;28;20061;-56
2022/03/13 01:14:35;;;;;;;23.33;5.90;;;;;;;2.67;51.88;98068.94;5019923;28;20149;-57
2022/03/13 01:17:06;;;;;;;24.55;6.65;;;;;;;2.48;50.86;98073.38;5019468;28;20041;-56
2022/03/13 01:19:31;;;;;;;22.17;6.20;;;;;;;2.49;49.36;98060.50;5006545;28;20022;-57
2022/03/13 01:21:57;;;;;;;30.98;8.35;;;;;;;2.21;47.48;98066.72;5001605;28;20034;-57
2022/03/13 01:24:43;;;;;;;19.92;6.05;;;;;;;2.36;53.08;98061.44;5009692;28;20619;-56
2022/03/13 01:27:11;;;;;;;30.40;7.78;;;;;;;2.28;52.16;98056.38;5010223;28;20034;-56
2022/03/13 01:29:36;;;;;;;24.25;6.55;;;;;;;2.40;53.42;98050.25;5007630;28;20070;-56
2022/03/13 01:32:02;;;;;;;25.02;6.15;;;;;;;2.39;54.98;98055.41;5007160;28;20041;-57
2022/03/13 01:34:38;;;;;;;25.20;7.03;;;;;;;2.17;47.70;98057.28;5007805;28;20025;-56
2022/03/13 01:37:15;;;;;;;25.40;7.00;;;;;;;2.44;48.65;98051.94;5009761;28;20723;-57
2022/03/13 01:39:42;;;;;;;27.10;6.97;;;;;;;2.40;52.31;98055.41;5007482;28;20080;-55
2022/03/13 01:42:07;;;;;;;30.85;7.35;;;;;;;2.41;53.30;98051.97;5006063;28;21228;-55
2022/03/13 01:44:33;;;;;;;26.80;7.30;;;;;;;2.05;46.75;98043.63;5008471;28;20555;-57
2022/03/13 01:47:01;;;;;;;29.00;7.15;;;;;;;1.90;45.21;98044.59;5001742;28;20034;-56
2022/03/13 01:49:26;;;;;;;27.98;7.43;;;;;;;1.84;45.63;98051.47;5003751;28;20117;-55
2022/03/13 01:51:52;;;;;;;25.38;6.70;;;;;;;1.99;48.08;98053.97;5005403;28;20145;-55
2022/03/13 01:54:17;;;;;;;28.88;7.65;;;;;;;1.74;45.69;98043.81;5010613;28;20034;-55
2022/03/13 01:56:43;;;;;;;24.58;6.72;;;;;;;1.89;46.11;98042.91;5004909;28;20145;-56
2022/03/13 01:59:11;;;;;;;23.27;6.82;;;;;;;1.80;45.93;98042.06;5007615;28;20064;-55
2022/03/13 02:01:37;;;;;;;24.10;6.70;;;;;;;1.88;50.86;98053.19;5008589;28;20046;-59
2022/03/13 02:04:03;;;;;;;29.40;7.07;;;;;;;2.00;51.82;98045.38;5004634;28;20026;-56
2022/03/13 02:06:29;;;;;;;25.20;6.75;;;;;;;1.93;47.52;98041.16;5005116;28;20044;-55
2022/03/13 02:08:55;;;;;;;22.23;6.30;;;;;;;1.99;53.63;98037.69;5010838;28;20030;-56
2022/03/13 02:11:28;;;;;;;29.40;6.68;;;;;;;2.18;53.71;98044.41;5007417;28;20549;-55
2022/03/13 02:13:55;;;;;;;25.98;6.60;;;;;;;2.14;49.91;98047.88;5005146;28;20969;-55
2022/03/13 02:16:21;;;;;;;26.48;7.05;;;;;;;2.08;52.09;98042.78;5006355;28;20041;-54
2022/03/13 02:18:49;;;;;;;31.15;6.95;;;;;;;2.08;48.77;98038.47;5004970;28;20116;-56
2022/03/13 02:21:16;;;;;;;25.83;7.20;;;;;;;2.10;50.96;98031.59;5007255;28;20064;-54
2022/03/13 02:23:41;;;;;;;22.73;5.88;;;;;;;1.86;47.35;98029.19;5006794;28;20034;-55
2022/03/13 02:26:07;;;;;;;25.88;6.68;;;;;;;1.97;50.48;98022.25;5004896;28;20067;-55
2022/03/13 02:28:36;;;;;;;24.13;6.43;;;;;;;2.23;58.19;98022.09;5007039;28;20087;-56
2022/03/13 02:31:04;;;;;;;19.27;5.80;;;;;;;1.87;51.96;98026.59;5008512;28;20048;-55
2022/03/13 02:33:31;;;;;;;22.88;6.18;;;;;;;2.08;55.65;98022.19;5004702;28;20029;-54
2022/03/13 02:36:01;;;;;;;25.55;6.88;;;;;;;1.84;49.34;98034.34;5004663;28;20083;-56
2022/03/13 02:38:28;;;;;;;27.15;7.35;;;;;;;1.64;48.07;98042.16;5004332;28;20069;-55
2022/03/13 02:40:55;;;;;;;28.20;7.40;;;;;;;1.67;49.40;98034.44;5006467;28;20052;-54
2022/03/13 02:43:21;;;;;;;23.35;6.35;;;;;;;1.83;52.55;98032.63;5005848;28;20120;-55
2022/03/13 02:45:47;;;;;;;25.73;6.78;;;;;;;1.71;52.11;98030.13;5008598;28;20091;-55
2022/03/13 02:48:12;;;;;;;30.35;6.63;;;;;;;1.70;53.68;98021.53;5000864;28;20110;-55
2022/03/13 02:50:39;;;;;;;28.95;6.90;;;;;;;1.62;51.64;98023.31;5005120;28;20485;-56
2022/03/13 02:53:05;;;;;;;21.35;6.65;;;;;;;1.76;55.80;98033.50;5005344;28;20675;-54
2022/03/13 02:55:31;;;;;;;24.23;6.57;;;;;;;1.83;51.98;98031.78;5005151;28;20033;-55
2022/03/13 02:57:57;;;;;;;22.67;6.00;;;;;;;1.86;55.85;98026.63;5006877;28;20021;-54
2022/03/13 03:00:49;;;;;;;23.92;6.65;;;;;;;1.43;49.39;98022.53;5007694;28;21047;-54
2022/03/13 03:03:18;;;;;;;29.42;7.18;;;;;;;1.42;48.69;98022.56;5006124;28;20040;-55
2022/03/13 03:05:44;;;;;;;22.10;6.45;;;;;;;1.60;51.88;98019.91;5005692;28;20042;-59
2022/03/13 03:08:10;;;;;;;25.30;6.03;;;;;;;1.59;56.21;98018.19;5003876;28;20495;-56
2022/03/13 03:10:36;;;;;;;31.17;7.57;;;;;;;1.44;50.37;98018.25;5005831;28;20508;-55
2022/03/13 03:13:02;;;;;;;28.10;6.90;;;;;;;1.33;50.91;98026.84;5002384;28;20024;-55
2022/03/13 03:15:28;;;;;;;30.38;7.15;;;;;;;1.40;52.06;98022.56;5006066;28;20038;-54
2022/03/13 03:17:53;;;;;;;24.88;7.30;;;;;;;1.43;48.17;98021.66;5004800;28;20695;-55
2022/03/13 03:20:20;;;;;;;27.30;7.05;;;;;;;1.22;48.78;98018.34;5004652;28;20580;-56
2022/03/13 03:22:47;;;;;;;25.58;7.03;;;;;;;1.00;46.34;98026.97;5008270;28;20140;-55
2022/03/13 03:25:13;;;;;;;29.55;7.75;;;;;;;1.17;49.81;98025.19;5006415;28;20024;-54
2022/03/13 03:27:41;;;;;;;23.42;6.30;;;;;;;1.43;56.04;98026.81;5004334;28;20027;-56
2022/03/13 03:30:07;;;;;;;31.88;7.82;;;;;;;1.15;49.79;98022.63;5005423;28;20042;-56
2022/03/13 03:32:32;;;;;;;23.95;6.75;;;;;;;1.27;50.04;98033.72;5003815;28;20084;-56
2022/03/13 03:34:58;;;;;;;27.10;7.18;;;;;;;1.26;52.08;98030.31;5002067;28;20032;-56
2022/03/13 03:37:23;;;;;;;28.60;7.03;;;;;;;1.02;50.59;98030.38;5001885;28;20683;-54
2022/03/13 03:39:49;;;;;;;22.75;6.20;;;;;;;1.22;52.85;98033.75;5007090;28;20029;-55
2022/03/13 03:42:14;;;;;;;24.38;6.80;;;;;;;0.95;47.42;98025.25;5003494;28;20734;-54
2022/03/13 03:44:39;;;;;;;32.80;7.28;;;;;;;1.14;53.28;98025.22;5004655;28;20030;-55
2022/03/13 03:47:05;;;;;;;22.30;6.55;;;;;;;1.08;50.68;98032.94;5003932;28;20042;-56
2022/03/13 03:49:30;;;;;;;25.95;6.80;;;;;;;1.03;48.94;98029.50;5004200;28;20037;-55
2022/03/13 03:51:55;;;;;;;23.20;6.32;;;;;;;1.17;51.43;98035.47;5005383;28;20743;-54
2022/03/13 03:54:21;;;;;;;26.75;7.43;;;;;;;1.12;52.25;98039.75;5007262;28;20029;-58
2022/03/13 03:56:47;;;;;;;21.92;6.22;;;;;;;1.28;54.12;98038.84;5002818;28;20049;-58
2022/03/13 03:59:12;;;;;;;22.83;6.40;;;;;;;1.34;52.64;98028.56;5003471;28;20052;-57
2022/03/13 04:01:39;;;;;;;24.33;6.18;;;;;;;1.27;54.46;98032.03;5005579;28;20072;-59
2022/03/13 04:04:07;;;;;;;27.13;6.90;;;;;;;1.00;49.38;98037.25;5002309;28;20170;-57
2022/03/13 04:06:34;;;;;;;24.15;6.78;;;;;;;1.16;51.54;98038.91;5004317;28;20044;-57
2022/03/13 04:09:00;;;;;;;24.35;6.85;;;;;;;1.11;49.37;98030.34;5006762;28;20026;-54
2022/03/13 04:11:26;;;;;;;24.67;6.68;;;;;;;0.99;51.16;98030.38;5008429;28;20416;-55
2022/03/13 04:13:51;;;;;;;33.67;7.43;;;;;;;1.05;50.93;98030.34;5003481;28;20518;-56
2022/03/13 04:16:17;;;;;;;24.02;6.38;;;;;;;1.14;52.74;98030.38;5006453;28;20033;-56
2022/03/13 04:18:42;;;;;;;30.55;7.28;;;;;;;1.14;50.15;98025.22;5005912;28;20045;-54
2022/03/13 04:21:07;;;;;;;28.92;6.97;;;;;;;1.05;48.82;98031.22;5005011;28;20126;-54
2022/03/13 04:23:34;;;;;;;30.55;7.00;;;;;;;1.44;56.97;98029.38;5007151;28;20027;-57
2022/03/13 04:26:00;;;;;;;35.25;7.63;;;;;;;0.76;47.46;98023.59;5006699;28;20025;-58
2022/03/13 04:28:25;;;;;;;28.60;7.03;;;;;;;0.81;51.00;98021.88;5003722;28;20029;-56
2022/03/13 04:30:53;;;;;;;29.67;7.00;;;;;;;0.86;50.36;98025.25;5002432;28;20038;-56
2022/03/13 04:33:19;;;;;;;25.35;6.53;;;;;;;0.96;47.84;98026.97;5004599;28;20084;-54
2022/03/13 04:35:45;;;;;;;24.35;6.60;;;;;;;0.81;48.41;98026.13;5004398;28;20501;-57
2022/03/13 04:38:11;;;;;;;33.22;7.32;;;;;;;0.79;46.33;98026.16;5007410;28;20527;-56
2022/03/13 04:40:37;;;;;;;28.80;6.50;;;;;;;0.45;46.23;98026.16;5004701;28;20040;-54
2022/03/13 04:43:03;;;;;;;32.10;7.10;;;;;;;1.33;56.38;98032.00;5001757;28;20033;-54
2022/03/13 04:45:28;;;;;;;27.73;6.78;;;;;;;1.06;nan;98032.06;5007365;28;20095;-56
2022/03/13 04:47:54;;;;;;;25.92;6.10;;;;;;;1.08;49.19;98028.63;4999405;28;20036;-55
2022/03/13 04:50:19;;;;;;;28.63;6.57;;;;;;;1.33;54.65;98037.13;5006891;28;20523;-55
2022/03/13 04:52:44;;;;;;;30.27;7.00;;;;;;;0.93;47.57;98032.09;5004039;28;20029;-55
2022/03/13 04:55:10;;;;;;;37.35;7.78;;;;;;;0.71;46.19;98035.56;5009017;28;20687;-55
2022/03/13 04:57:35;;;;;;;27.55;6.80;;;;;;;0.68;46.95;98044.13;5010473;28;20010;-54
2022/03/13 05:00:01;;;;;;;25.90;6.20;;;;;;;0.90;51.97;98037.25;5007828;28;20454;-55
2022/03/13 05:02:27;;;;;;;26.83;6.13;;;;;;;0.72;47.49;98045.00;5009053;28;20104;-55
2022/03/13 05:04:53;;;;;;;41.90;8.13;;;;;;;0.52;47.78;98045.84;5010468;28;20010;-54
2022/03/13 05:07:22;;;;;;;33.38;7.32;;;;;;;0.43;45.83;98050.97;5008339;28;20664;-56
2022/03/13 05:09:47;;;;;;;29.40;7.85;;;;;;;0.36;45.57;98055.25;5004787;28;20030;-54
2022/03/13 05:12:14;;;;;;;32.63;6.88;;;;;;;0.63;51.36;98055.28;5004911;28;22170;-55
2022/03/13 05:14:39;;;;;;;29.27;6.97;;;;;;;0.58;48.84;98057.81;5005546;28;20014;-56
2022/03/13 05:17:05;;;;;;;28.52;6.95;;;;;;;0.40;46.46;98066.38;5005752;28;20040;-55
2022/03/13 05:19:30;;;;;;;31.20;7.10;;;;;;;0.45;49.77;98064.66;5008428;28;20073;-55
2022/03/13 05:21:55;;;;;;;23.40;6.45;;;;;;;0.14;45.70;98058.66;5003793;28;20066;-57
2022/03/13 05:24:21;;;;;;;34.75;7.53;;;;;;;0.49;47.09;98062.97;5001365;28;20029;-55
2022/03/13 05:26:46;;;;;;;27.00;6.85;;;;;;;0.56;46.84;98068.09;5009854;28;20695;-55
2022/03/13 05:29:12;;;;;;;26.48;6.25;;;;;;;0.53;51.38;98062.09;5006554;28;20452;-55
2022/03/13 05:31:38;;;;;;;27.75;6.65;;;;;;;0.71;51.48;98071.50;5005257;28;20480;-55
2022/03/13 05:34:03;;;;;;;24.00;6.43;;;;;;;0.64;47.45;98070.66;5005941;28;20033;-57
2022/03/13 05:36:29;;;;;;;30.58;6.40;;;;;;;0.50;50.85;98078.34;4999274;28;20038;-54
2022/03/13 05:38:54;;;;;;;28.02;6.07;;;;;;;0.66;56.13;98078.34;5005297;28;20127;-56
2022/03/13 05:41:22;;;;;;;29.33;6.78;;;;;;;0.48;47.71;98085.22;5003793;28;20065;-54
2022/03/13 05:43:48;;;;;;;29.73;6.72;;;;;;;0.49;50.01;98080.91;5006851;28;20400;-55
2022/03/13 05:46:14;;;;;;;27.33;6.80;;;;;;;0.79;49.63;98079.19;5003462;28;20038;-54
2022/03/13 05:48:39;;;;;;;32.40;7.10;;;;;;;0.68;48.71;98076.63;5006680;28;20037;-56
2022/03/13 05:51:04;;;;;;;24.60;6.40;;;;;;;0.98;53.87;98080.06;5003484;28;20072;-56
2022/03/13 05:53:30;;;;;;;34.72;6.95;;;;;;;1.22;57.63;98080.00;5006841;28;20024;-55
2022/03/13 05:55:55;;;;;;;29.52;7.00;;;;;;;1.50;49.44;98080.75;5006498;28;20030;-56
2022/03/13 05:58:20;;;;;;;27.45;6.55;;;;;;;2.46;48.54;98086.28;5008059;28;20025;-56
2022/03/13 06:01:01;;;;;;;27.45;6.13;;;;;;;3.88;53.55;98090.03;5009589;28;20042;-55
2022/03/13 06:03:27;;;;;;;31.00;7.93;;;;;;;3.45;40.83;98090.53;5008881;28;20081;-57
2022/03/13 06:05:52;;;;;;;27.88;6.85;;;;;;;4.93;43.00;98081.56;5007703;28;20034;-61
2022/03/13 06:08:18;;;;;;;27.63;6.55;;;;;;;5.25;46.98;98079.31;5005562;28;20403;-57
2022/03/13 06:10:43;;;;;;;29.17;6.93;;;;;;;6.67;42.22;98087.56;5008347;28;20041;-55
2022/03/13 06:13:08;;;;;;;25.95;6.70;;;;;;;7.42;38.40;98083.06;5004390;28;20956;-55
2022/03/13 06:15:34;;;;;;;23.60;6.85;;;;;;;7.09;35.19;98085.63;5005710;28;20503;-55
2022/03/13 06:17:59;;;;;;;26.38;7.22;;;;;;;7.01;35.09;98077.22;5007137;28;20844;-56
2022/03/13 06:20:25;;;;;;;24.05;7.20;;;;;;;7.59;33.95;98073.97;5008587;28;20034;-56
2022/03/13 06:22:51;;;;;;;26.13;7.57;;;;;;;9.34;33.21;98071.13;5007100;28;20036;-55
2022/03/13 06:25:17;;;;;;;23.48;7.43;;;;;;;9.48;31.23;98075.00;5006811;28;20033;-56
2022/03/13 06:27:43;;;;;;;22.67;7.18;;;;;;;10.89;31.39;98069.63;5004122;28;20025;-56
2022/03/13 06:30:16;;;;;;;25.55;7.55;;;;;;;8.59;31.67;98079.69;5005760;28;20029;-56
2022/03/13 06:32:46;;;;;;;37.08;9.10;;;;;;;10.28;30.79;98082.50;5004672;28;20034;-56
2022/03/13 06:35:12;;;;;;;26.35;7.18;;;;;;;9.72;33.34;98079.31;5007480;28;20040;-56
2022/03/13 06:37:39;;;;;;;24.20;7.43;;;;;;;10.35;29.04;98078.78;5004108;28;20018;-55
2022/03/13 06:40:06;;;;;;;21.83;7.13;;;;;;;10.35;30.32;98084.00;5005859;28;20029;-55
2022/03/13 06:42:32;;;;;;;25.05;7.97;;;;;;;9.89;28.35;98078.72;5008191;28;20108;-57
2022/03/13 06:44:57;;;;;;;25.70;8.02;;;;;;;12.44;28.05;98082.91;5004556;28;20377;-56
2022/03/13 06:47:23;;;;;;;24.77;8.13;;;;;;;12.54;26.55;98085.91;5005497;28;20037;-56
2022/03/13 06:49:48;;;;;;;20.85;7.30;;;;;;;12.04;26.59;98081.25;5003465;28;20057;-57
2022/03/13 06:52:13;;;;;;;26.63;7.85;;;;;;;12.07;28.46;98081.13;5004970;28;20474;-57
2022/03/13 06:54:39;;;;;;;23.90;7.40;;;;;;;11.70;26.96;98086.22;5004419;28;20124;-56
2022/03/13 06:57:05;;;;;;;18.65;6.95;;;;;;;10.08;27.81;98086.69;5002861;28;20622;-55
2022/03/13 06:59:30;;;;;;;21.90;7.53;;;;;;;10.98;27.92;98084.91;5005471;28;20109;-56
2022/03/13 07:01:56;;;;;;;22.15;7.22;;;;;;;11.88;26.73;98083.72;5006943;28;20032;-55
2022/03/13 07:04:21;;;;;;;19.55;7.05;;;;;;;11.46;26.66;98082.91;5006208;28;20077;-57
2022/03/13 07:06:46;;;;;;;22.80;7.43;;;;;;;9.75;28.30;98092.25;5004709;28;20046;-57
2022/03/13 07:09:12;;;;;;;20.10;7.75;;;;;;;14.48;24.78;98101.38;5006820;28;20086;-56
2022/03/13 07:11:37;;;;;;;18.77;6.85;;;;;;;14.72;26.57;98100.06;5001862;28;20468;-57
2022/03/13 07:14:05;;;;;;;18.52;7.18;;;;;;;11.95;25.95;98103.47;5004341;28;20042;-55
2022/03/13 07:16:31;;;;;;;21.05;7.95;;;;;;;15.39;24.48;98089.22;5004317;28;20030;-57
2022/03/13 07:18:56;;;;;;;22.55;7.70;;;;;;;13.57;24.29;98104.44;5004163;28;20022;-58
2022/03/13 07:21:22;;;;;;;16.58;6.97;;;;;;;14.23;23.87;98097.47;5009673;28;20072;-56
2022/03/13 07:23:47;;;;;;;21.00;7.72;;;;;;;14.03;24.50;98104.63;5006014;28;20033;-58
2022/03/13 07:26:14;;;;;;;18.35;7.22;;;;;;;14.50;23.92;98095.13;5005357;28;20044;-56
2022/03/13 07:28:39;;;;;;;21.67;7.97;;;;;;;12.33;25.28;98098.22;5005841;28;20064;-56
2022/03/13 07:31:04;;;;;;;24.70;7.78;;;;;;;13.84;24.37;98085.56;5007153;28;20046;-56
2022/03/13 07:33:32;;;;;;;20.33;7.80;;;;;;;15.28;23.18;98091.63;5006297;28;20975;-55
2022/03/13 07:35:57;;;;;;;19.05;7.72;;;;;;;14.95;24.24;98090.00;5000718;28;20045;-58
2022/03/13 07:38:23;;;;;;;23.25;7.78;;;;;;;14.97;23.14;98099.47;5007040;28;20021;-56
2022/03/13 07:40:48;;;;;;;18.83;7.65;;;;;;;14.79;23.58;98097.91;5006262;28;20033;-57
2022/03/13 07:43:14;;;;;;;19.17;7.63;;;;;;;13.93;23.95;98095.59;5004846;28;20075;-56
2022/03/13 07:45:39;;;;;;;20.10;7.07;;;;;;;14.89;22.99;98085.09;5008481;28;20037;-57
2022/03/13 07:48:04;;;;;;;23.17;7.65;;;;;;;15.43;22.73;98090.72;5005519;28;20022;-57
2022/03/13 07:50:30;;;;;;;18.05;7.50;;;;;;;16.12;22.15;98091.81;5003229;28;20104;-58
2022/03/13 07:52:55;;;;;;;18.05;7.65;;;;;;;13.18;24.23;98092.41;5006109;28;20179;-56
2022/03/13 07:55:22;;;;;;;18.48;7.57;;;;;;;16.32;22.48;98092.34;5005156;28;20033;-55
2022/03/13 07:57:50;;;;;;;21.27;7.95;;;;;;;15.88;22.94;98086.28;5003756;28;20117;-58
2022/03/13 08:00:17;;;;;;;17.95;7.47;;;;;;;16.18;22.63;98093.22;5004450;28;20559;-58
2022/03/13 08:02:47;;;;;;;18.15;7.90;;;;;;;16.88;22.01;98084.44;5000094;28;20060;-56
2022/03/13 08:05:21;;;;;;;19.90;7.82;;;;;;;15.18;23.26;98092.16;5004693;28;20029;-56
2022/03/13 08:07:49;;;;;;;18.02;7.70;;;;;;;13.73;23.05;98096.63;5006405;28;20032;-56
2022/03/13 08:10:20;;;;;;;20.38;8.02;;;;;;;14.87;23.20;98098.34;5006210;28;20757;-56
2022/03/13 08:12:45;;;;;;;15.13;7.20;;;;;;;14.35;23.34;98095.94;5004150;28;20022;-56
2022/03/13 08:15:11;;;;;;;20.30;7.90;;;;;;;15.66;23.11;98096.38;4999540;28;20032;-57
2022/03/13 08:17:36;;;;;;;19.40;7.80;;;;;;;14.83;23.08;98095.03;5003536;28;20539;-58
2022/03/13 08:20:06;;;;;;;20.63;7.63;;;;;;;12.86;23.61;98091.38;5007995;28;20030;-56
2022/03/13 08:22:31;;;;;;;20.15;7.72;;;;;;;13.77;24.30;98094.69;5003363;28;20053;-57
2022/03/13 08:24:57;;;;;;;22.63;7.70;;;;;;;13.55;24.02;98094.97;5004108;28;20030;-56
2022/03/13 08:27:23;;;;;;;17.42;7.55;;;;;;;13.96;24.03;98097.19;5006471;28;20033;-56
2022/03/13 08:29:48;;;;;;;21.20;7.63;;;;;;;14.96;23.78;98096.94;5008443;28;20780;-57
2022/03/13 08:32:15;;;;;;;20.70;7.38;;;;;;;15.45;22.97;98088.84;5006225;28;20045;-57
2022/03/13 08:34:42;;;;;;;19.35;7.88;;;;;;;14.29;23.45;98102.38;5005472;28;20032;-55
2022/03/13 08:37:08;;;;;;;19.42;7.40;;;;;;;15.57;23.02;98089.91;5009997;28;20034;-57
2022/03/13 08:39:35;;;;;;;18.55;7.80;;;;;;;15.66;22.27;98091.09;5008150;28;20029;-57
2022/03/13 08:42:00;;;;;;;18.05;7.72;;;;;;;15.98;22.69;98090.03;5006663;28;20062;-55
2022/03/13 08:44:25;;;;;;;18.63;7.50;;;;;;;16.28;22.40;98091.69;5007935;28;20030;-57
2022/03/13 08:46:51;;;;;;;18.50;7.28;;;;;;;14.61;23.53;98097.16;5004210;28;20034;-57
2022/03/13 08:49:16;;;;;;;23.25;8.20;;;;;;;16.21;22.72;98094.81;5009266;28;20114;-55
2022/03/13 08:51:42;;;;;;;20.83;7.78;;;;;;;15.93;22.57;98089.47;5005328;28;20065;-58
2022/03/13 08:54:08;;;;;;;18.67;7.47;;;;;;;17.45;21.48;98086.75;5002427;28;20026;-57
2022/03/13 08:56:33;;;;;;;18.20;7.72;;;;;;;16.75;22.22;98087.81;5007613;28;20183;-56
2022/03/13 08:58:58;;;;;;;21.05;8.15;;;;;;;15.21;22.62;98088.50;5011002;28;20112;-58
2022/03/13 09:01:25;;;;;;;16.75;7.45;;;;;;;19.48;20.19;98081.13;5007249;28;20704;-56
2022/03/13 09:03:51;;;;;;;17.88;7.45;;;;;;;18.34;21.00;98078.91;5006835;28;20037;-56
2022/03/13 09:06:16;;;;;;;15.40;6.95;;;;;;;15.76;22.50;98081.78;5008937;28;20354;-57
2022/03/13 09:08:41;;;;;;;21.23;7.93;;;;;;;15.55;23.06;98075.97;5003157;28;20024;-57
2022/03/13 09:11:08;;;;;;;16.67;6.47;;;;;;;14.93;21.62;98071.72;5006592;28;20080;-56
2022/03/13 09:13:35;;;;;;;15.63;6.68;;;;;;;15.97;20.59;98069.94;5003720;28;20062;-56
2022/03/13 09:16:01;;;;;;;18.92;6.88;;;;;;;16.84;21.00;98061.88;5000422;28;20081;-56
2022/03/13 09:18:26;;;;;;;18.30;7.57;;;;;;;16.57;21.94;98062.69;5002331;28;20022;-57
2022/03/13 09:20:51;;;;;;;20.45;6.95;;;;;;;16.72;21.66;98069.56;5004808;28;20049;-56
2022/03/13 09:23:17;;;;;;;16.90;7.13;;;;;;;16.47;20.40;98072.09;5007341;28;20033;-58
2022/03/13 09:25:42;;;;;;;15.07;6.20;;;;;;;17.02;19.92;98055.38;5008505;28;20608;-57
2022/03/13 09:28:08;;;;;;;15.30;6.15;;;;;;;14.80;21.20;98071.56;5007330;28;20076;-56
2022/03/13 09:30:33;;;;;;;17.23;6.55;;;;;;;14.20;21.88;98066.16;5007205;28;20037;-56
2022/03/13 09:33:00;;;;;;;22.70;7.32;;;;;;;14.06;22.30;98064.28;5001736;28;20033;-56
2022/03/13 09:35:26;;;;;;;18.63;7.07;;;;;;;13.70;22.43;98062.69;5004747;28;20127;-56
2022/03/13 09:37:51;;;;;;;19.20;7.20;;;;;;;14.19;21.96;98064.44;5012544;28;20463;-58
2022/03/13 09:40:19;;;;;;;19.33;7.25;;;;;;;12.64;22.83;98076.69;5009701;28;20576;-56
2022/03/13 09:42:45;;;;;;;26.17;7.82;;;;;;;12.78;23.33;98068.19;5004315;28;20022;-58
2022/03/13 09:45:12;;;;;;;25.55;7.50;;;;;;;14.74;22.31;98071.06;5004078;28;20099;-57
2022/03/13 09:47:38;;;;;;;22.08;6.78;;;;;;;15.73;21.52;98066.13;5002837;28;20036;-55
2022/03/13 09:50:06;;;;;;;23.05;7.30;;;;;;;14.63;21.60;98069.91;5002935;28;20039;-55
2022/03/13 09:52:33;;;;;;;24.75;7.55;;;;;;;15.33;21.77;98065.91;5007827;28;20017;-55
2022/03/13 09:54:59;;;;;;;20.50;6.75;;;;;;;14.76;21.87;98070.06;5009035;28;20139;-56
2022/03/13 09:57:24;;;;;;;19.45;6.40;;;;;;;14.91;22.27;98065.72;5004112;28;20800;-57
2022/03/13 09:59:50;;;;;;;21.80;7.05;;;;;;;16.19;21.88;98065.94;5010699;28;20743;-57
2022/03/13 10:02:15;;;;;;;22.83;7.00;;;;;;;15.49;21.27;98069.31;5002394;28;20049;-57
2022/03/13 10:04:41;;;;;;;22.77;7.15;;;;;;;16.04;21.29;98061.66;5007564;28;20450;-57
2022/03/13 10:07:11;;;;;;;18.05;6.50;;;;;;;14.87;21.83;98071.22;5009486;28;20500;-58
2022/03/13 10:09:40;;;;;;;22.88;7.03;;;;;;;15.06;21.71;98061.34;5004180;28;20028;-57
2022/03/13 10:12:19;;;;;;;17.77;6.78;;;;;;;16.06;21.02;98051.88;5004030;28;20681;-56
2022/03/13 10:15:05;;;;;;;19.23;6.57;;;;;;;17.97;20.07;98049.84;5002508;28;20030;-57
2022/03/13 10:17:34;;;;;;;19.02;6.65;;;;;;;15.98;21.38;98055.00;4998772;28;20149;-56
2022/03/13 10:20:18;;;;;;;18.95;6.70;;;;;;;15.95;21.52;98040.25;5004823;28;20030;-56
2022/03/13 10:22:46;;;;;;;23.15;7.70;;;;;;;16.70;21.09;98047.75;5005182;28;20034;-55
2022/03/13 10:25:14;;;;;;;19.92;6.65;;;;;;;15.59;21.54;98046.78;5001372;28;20025;-55
2022/03/13 10:27:41;;;;;;;21.33;6.93;;;;;;;15.75;21.59;98044.13;5007332;28;20079;-55
2022/03/13 10:30:09;;;;;;;18.83;6.57;;;;;;;15.87;21.41;98042.50;5006239;28;20021;-55
2022/03/13 10:32:37;;;;;;;20.20;6.75;;;;;;;16.40;21.32;98040.06;5008024;28;20021;-55
2022/03/13 10:35:04;;;;;;;22.70;7.25;;;;;;;15.87;21.47;98021.47;5004258;28;20112;-56
2022/03/13 10:37:41;;;;;;;17.95;6.72;;;;;;;16.07;21.77;98035.16;5002377;28;20061;-57
2022/03/13 10:40:15;;;;;;;19.92;6.78;;;;;;;16.16;21.62;98021.44;5004241;28;20017;-57
2022/03/13 10:42:43;;;;;;;26.25;7.75;;;;;;;15.34;21.75;98022.94;5004125;28;20109;-56
2022/03/13 10:45:10;;;;;;;26.23;7.55;;;;;;;15.93;21.60;98026.31;5005637;28;20122;-57
2022/03/13 10:47:36;;;;;;;19.10;6.50;;;;;;;16.51;21.22;98020.94;5002022;28;20033;-57
2022/03/13 10:50:02;;;;;;;19.08;7.28;;;;;;;16.53;21.34;98016.44;5004624;28;20053;-57
2022/03/13 10:52:32;;;;;;;18.52;6.82;;;;;;;15.52;21.98;98016.56;5005109;28;20049;-57
2022/03/13 10:55:15;;;;;;;26.73;7.47;;;;;;;15.26;22.49;98012.03;5003169;28;20038;-56
2022/03/13 10:57:48;;;;;;;22.90;7.07;;;;;;;15.69;22.02;98006.78;5006679;28;20511;-56
2022/03/13 11:00:15;;;;;;;22.15;7.45;;;;;;;15.93;21.94;98007.91;5005757;28;20026;-57
2022/03/13 11:02:41;;;;;;;21.05;6.35;;;;;;;17.07;21.46;98008.47;5008915;28;20140;-58
2022/03/13 11:05:07;;;;;;;22.52;6.93;;;;;;;16.20;21.72;98009.75;5004428;28;20112;-56
2022/03/13 11:07:34;;;;;;;17.02;6.95;;;;;;;15.20;22.45;98008.84;5004310;28;20076;-56
2022/03/13 11:10:00;;;;;;;23.27;7.68;;;;;;;15.73;21.74;98008.28;5004854;28;20029;-57
2022/03/13 11:12:26;;;;;;;19.33;6.95;;;;;;;15.91;22.13;98007.16;5005614;28;20527;-55
2022/03/13 11:14:57;;;;;;;27.35;7.85;;;;;;;14.75;22.77;98001.88;5006201;28;20454;-56
2022/03/13 11:17:26;;;;;;;19.25;7.00;;;;;;;15.98;22.50;97991.84;5001987;28;20033;-56
2022/03/13 11:19:55;;;;;;;21.08;7.00;;;;;;;16.17;22.18;97996.78;5002979;28;20036;-57
2022/03/13 11:22:21;;;;;;;18.63;6.82;;;;;;;15.76;22.58;97995.81;5003227;28;20761;-56
2022/03/13 11:24:48;;;;;;;27.40;8.07;;;;;;;16.23;22.03;97998.19;5008294;28;20611;-56
2022/03/13 11:27:15;;;;;;;22.52;6.97;;;;;;;16.75;21.79;97982.47;5006258;28;20045;-57